Time;durP1;ratioP1;P1;durP2;ratioP2;P2;SDS_P1;SDS_P2;PMS_P1;PMS_P2;Temp;Humidity;BMP_temperature;BMP_pressure;BME280_temperature;BME280_humidity;BME280_pressure;Samples;Min_cycle;Max_cycle;Signal;HPM_P1;HPM_P2
2021/12/27 00:01:22;;;;;;;6.38;2.60;;;;;;;25.98;34.22;95424.88;4982846;28;20046;-26
2021/12/27 00:03:49;;;;;;;6.72;2.72;;;;;;;25.98;34.25;95430.97;4967449;28;20025;-27
2021/12/27 00:06:15;;;;;;;5.70;2.47;;;;;;;25.97;34.10;95431.91;4984311;28;20026;-28
2021/12/27 00:08:42;;;;;;;5.65;2.35;;;;;;;25.96;34.14;95428.44;4971046;28;20034;-26
2021/12/27 00:11:12;;;;;;;6.97;2.67;;;;;;;25.96;34.12;95428.44;4968205;28;20463;-27
2021/12/27 00:13:37;;;;;;;7.38;2.72;;;;;;;25.96;34.04;95430.22;4986663;28;20053;-28
2021/12/27 00:16:03;;;;;;;7.43;2.35;;;;;;;25.96;34.05;95412.72;4981442;28;21093;-27
2021/12/27 00:18:28;;;;;;;5.13;2.60;;;;;;;25.97;34.07;95416.16;4982821;28;20022;-27
2021/12/27 00:20:54;;;;;;;7.13;2.58;;;;;;;25.96;34.02;95410.09;4983784;28;20030;-28
2021/12/27 00:23:19;;;;;;;4.95;2.40;;;;;;;25.96;34.16;95406.59;4984178;28;20035;-28
2021/12/27 00:25:45;;;;;;;5.63;2.60;;;;;;;25.96;34.14;95399.59;4986965;28;20029;-26
2021/12/27 00:28:10;;;;;;;5.60;2.20;;;;;;;25.96;34.14;95393.47;4987843;28;20033;-27
2021/12/27 00:30:38;;;;;;;5.28;2.45;;;;;;;25.96;33.97;95401.34;4989091;28;20092;-27
2021/12/27 00:33:03;;;;;;;5.03;2.20;;;;;;;25.96;34.03;95407.47;4982856;28;20050;-29
2021/12/27 00:35:32;;;;;;;5.28;2.28;;;;;;;25.95;34.14;95407.56;4948156;28;20033;-29
2021/12/27 00:37:57;;;;;;;6.63;2.72;;;;;;;25.96;34.04;95414.47;4982236;28;20026;-28
2021/12/27 00:40:23;;;;;;;5.57;2.15;;;;;;;25.95;33.95;95404.94;4981032;28;20054;-26
2021/12/27 00:42:50;;;;;;;4.32;2.15;;;;;;;25.96;34.11;95411.84;4984850;28;20037;-29
2021/12/27 00:45:16;;;;;;;4.15;2.20;;;;;;;25.95;34.04;95410.19;4985211;28;20030;-25
2021/12/27 00:47:41;;;;;;;5.30;2.33;;;;;;;25.95;34.04;95404.94;4983367;28;20120;-24
2021/12/27 00:50:07;;;;;;;4.07;2.03;;;;;;;25.94;34.08;95413.78;4983343;28;21006;-27
2021/12/27 00:52:35;;;;;;;6.15;2.25;;;;;;;25.95;34.04;95412.81;4964780;28;20038;-25
2021/12/27 00:55:01;;;;;;;3.15;1.65;;;;;;;25.94;34.00;95409.34;4949888;28;20131;-26
2021/12/27 00:57:26;;;;;;;5.85;2.08;;;;;;;25.94;34.12;95408.53;4983231;28;20558;-30
2021/12/27 00:59:52;;;;;;;4.60;2.00;;;;;;;25.95;34.08;95410.19;4982858;28;20037;-29
2021/12/27 01:02:17;;;;;;;4.45;2.00;;;;;;;25.93;33.94;95396.38;4981064;28;20033;-27
2021/12/27 01:04:42;;;;;;;4.85;1.52;;;;;;;25.93;34.03;95409.50;4982830;28;20037;-28
2021/12/27 01:07:08;;;;;;;5.60;2.13;;;;;;;25.94;34.08;95408.53;4984598;28;20034;-27
2021/12/27 01:09:55;;;;;;;3.88;1.80;;;;;;;25.94;33.89;95411.97;4973167;28;20451;-27
2021/12/27 01:13:36;;;;;;;4.28;1.95;;;;;;;-148.56;100.00;61375.16;4983459;28;20503;-26
2021/12/27 01:17:00;;;;;;;3.60;1.80;;;;;;;-148.56;100.00;61375.16;4981142;28;20022;-26
2021/12/27 01:20:23;;;;;;;3.47;1.73;;;;;;;-148.56;100.00;61375.16;4981446;28;20050;-27
2021/12/27 01:23:47;;;;;;;4.60;1.80;;;;;;;-148.56;100.00;61375.16;4982230;28;20690;-26
2021/12/27 01:27:11;;;;;;;4.65;1.85;;;;;;;-148.56;100.00;61375.16;4981437;28;20467;-29
2021/12/27 01:30:38;;;;;;;6.05;1.90;;;;;;;-148.56;100.00;61375.16;4969401;28;20173;-27
2021/12/27 01:34:02;;;;;;;3.47;1.58;;;;;;;-148.56;100.00;61375.16;4981729;28;20033;-29
2021/12/27 01:37:26;;;;;;;4.13;1.50;;;;;;;-148.56;100.00;61375.16;4991193;28;20037;-30
2021/12/27 01:40:54;;;;;;;3.00;1.70;;;;;;;-148.56;100.00;61375.16;4992388;28;20056;-32
2021/12/27 01:44:19;;;;;;;4.07;1.75;;;;;;;-148.56;100.00;61375.16;4988418;28;20119;-28
2021/12/27 01:47:43;;;;;;;4.13;1.50;;;;;;;-148.56;100.00;61375.16;4989839;28;20038;-30
2021/12/27 01:51:12;;;;;;;2.58;1.30;;;;;;;-148.56;100.00;61375.16;4990763;28;20104;-32
2021/12/27 01:54:22;;;;;;;3.08;1.40;;;;;;;-148.56;33.89;95411.97;4986365;28;20630;-29
2021/12/27 01:57:47;;;;;;;2.67;1.42;;;;;;;-148.56;100.00;61375.16;4968619;28;20471;-32
2021/12/27 02:00:13;;;;;;;6.53;1.90;;;;;;;25.83;33.95;95422.47;4990342;28;20520;-29
2021/12/27 02:02:38;;;;;;;2.35;1.60;;;;;;;25.81;34.09;95412.06;4986914;28;20068;-28
2021/12/27 02:05:04;;;;;;;5.03;1.38;;;;;;;25.78;34.09;95407.03;4981332;28;20476;-27
2021/12/27 02:08:28;;;;;;;3.03;1.42;;;;;;;-148.56;100.00;61375.16;4987759;28;20522;-29
2021/12/27 02:11:52;;;;;;;2.35;1.27;;;;;;;-148.56;100.00;61375.16;4985737;28;20034;-28
2021/12/27 02:15:16;;;;;;;4.72;1.38;;;;;;;-148.56;100.00;61375.16;4970005;28;20496;-26
2021/12/27 02:17:42;;;;;;;3.72;1.60;;;;;;;25.79;34.10;95400.88;4977518;28;20026;-26
2021/12/27 02:20:18;;;;;;;3.85;1.60;;;;;;;25.78;34.09;95404.41;4988233;28;20038;-29
2021/12/27 02:22:45;;;;;;;2.55;1.23;;;;;;;25.79;34.01;95413.13;4989217;28;20029;-27
2021/12/27 02:25:10;;;;;;;4.38;1.80;;;;;;;25.77;34.05;95413.25;4986662;28;20835;-28
2021/12/27 02:27:36;;;;;;;2.90;1.83;;;;;;;25.73;34.00;95401.31;4986265;28;20030;-29
2021/12/27 02:30:03;;;;;;;2.47;1.52;;;;;;;25.77;34.01;95402.75;4969820;28;20037;-28
2021/12/27 02:32:30;;;;;;;3.17;1.42;;;;;;;25.77;34.01;95397.50;4973491;28;20040;-26
2021/12/27 02:34:56;;;;;;;2.85;1.30;;;;;;;25.78;34.16;95382.63;4982063;28;20036;-25
2021/12/27 02:37:21;;;;;;;2.92;1.17;;;;;;;25.77;34.13;95378.28;4958302;28;20034;-26
2021/12/27 02:39:46;;;;;;;2.25;1.33;;;;;;;25.72;34.02;95373.41;4987972;28;20660;-27
2021/12/27 02:42:18;;;;;;;2.90;1.33;;;;;;;25.79;34.01;95379.03;4987825;28;20033;-29
2021/12/27 02:44:44;;;;;;;2.38;1.23;;;;;;;25.78;33.90;95383.44;4970012;28;20035;-27
2021/12/27 02:47:09;;;;;;;1.92;1.27;;;;;;;25.79;33.76;95389.53;4987107;28;20038;-27
2021/12/27 02:49:35;;;;;;;2.75;1.20;;;;;;;25.77;33.81;95392.25;4981759;28;20544;-28
2021/12/27 02:52:00;;;;;;;2.75;1.50;;;;;;;25.79;33.93;95390.38;4987118;28;20030;-28
2021/12/27 02:54:26;;;;;;;2.08;1.25;;;;;;;25.79;34.01;95402.66;4989924;28;20022;-28
2021/12/27 02:56:52;;;;;;;2.55;1.05;;;;;;;25.72;33.74;95398.78;4986510;28;20037;-28
2021/12/27 02:59:17;;;;;;;2.28;1.00;;;;;;;25.79;33.79;95395.63;4988210;28;20029;-27
2021/12/27 03:01:43;;;;;;;4.53;1.30;;;;;;;25.80;33.81;95396.44;4988076;28;20093;-28
2021/12/27 03:04:08;;;;;;;1.42;1.05;;;;;;;25.79;33.85;95390.38;4987203;28;21138;-29
2021/12/27 03:06:33;;;;;;;2.40;1.23;;;;;;;25.79;34.05;95395.63;4986873;28;20037;-26
2021/12/27 03:08:59;;;;;;;1.52;1.00;;;;;;;25.80;33.83;95385.94;4973636;28;20038;-27
2021/12/27 03:11:24;;;;;;;1.60;0.98;;;;;;;25.79;33.94;95393.00;4967123;28;20496;-28
2021/12/27 03:13:51;;;;;;;3.80;1.25;;;;;;;25.81;33.90;95387.59;4986731;28;20030;-25
2021/12/27 03:16:17;;;;;;;2.03;1.40;;;;;;;25.79;33.92;95384.28;4971637;28;20023;-26
2021/12/27 03:18:43;;;;;;;2.15;1.08;;;;;;;25.78;33.85;95380.81;4982992;28;20046;-27
2021/12/27 03:21:09;;;;;;;1.52;0.90;;;;;;;25.79;33.94;95374.63;4949051;28;20033;-27
2021/12/27 03:23:35;;;;;;;2.65;1.10;;;;;;;25.78;33.88;95383.44;4950553;28;20940;-28
2021/12/27 03:26:00;;;;;;;1.58;0.93;;;;;;;25.79;33.87;95379.88;4986690;28;20114;-28
2021/12/27 03:28:26;;;;;;;3.25;1.40;;;;;;;25.78;33.86;95378.19;4987999;28;20045;-27
2021/12/27 03:30:51;;;;;;;1.80;1.02;;;;;;;25.78;33.87;95367.69;4991744;28;20026;-26
2021/12/27 03:33:20;;;;;;;3.60;1.02;;;;;;;25.78;33.87;95369.50;4991113;28;20025;-29
2021/12/27 03:35:59;;;;;;;3.65;1.20;;;;;;;25.78;33.85;95372.13;4990416;28;20026;-28
2021/12/27 03:38:25;;;;;;;2.65;1.33;;;;;;;25.76;33.74;95364.34;4989828;28;20607;-26
2021/12/27 03:40:50;;;;;;;2.17;1.10;;;;;;;25.77;33.84;95359.91;4992636;28;20718;-26
2021/12/27 03:43:16;;;;;;;1.33;0.85;;;;;;;25.75;33.75;95351.34;4976201;28;20026;-25
2021/12/27 03:45:41;;;;;;;4.30;1.02;;;;;;;25.76;33.92;95353.00;4970820;28;20026;-27
2021/12/27 03:48:08;;;;;;;2.92;1.17;;;;;;;25.76;33.75;95353.84;4992960;28;20033;-26
2021/12/27 03:50:33;;;;;;;1.80;1.17;;;;;;;25.74;33.85;95350.50;4973203;28;20037;-26
2021/12/27 03:52:59;;;;;;;1.70;0.90;;;;;;;25.75;33.84;95357.44;4991860;28;20546;-27
2021/12/27 03:55:24;;;;;;;1.77;0.90;;;;;;;25.74;33.76;95355.75;4989872;28;20037;-28
2021/12/27 03:57:54;;;;;;;1.48;0.98;;;;;;;25.74;33.80;95350.50;4992595;28;20045;-27
2021/12/27 04:02:48;;;;;;;1.13;0.82;;;;;;;25.74;33.84;95355.75;4989432;28;20036;-28
2021/12/27 04:05:14;;;;;;;2.05;1.00;;;;;;;25.74;33.89;95350.50;4973724;28;20279;-26
2021/12/27 04:07:40;;;;;;;2.28;1.00;;;;;;;25.74;33.75;95355.75;4975988;28;20861;-27
2021/12/27 04:10:06;;;;;;;2.05;1.02;;;;;;;25.74;33.75;95355.75;4986648;28;20145;-28
2021/12/27 04:12:32;;;;;;;1.33;0.88;;;;;;;25.74;33.74;95354.94;4990897;28;21009;-27
2021/12/27 04:14:57;;;;;;;1.02;0.50;;;;;;;25.73;33.74;95354.09;4988703;28;20037;-30
2021/12/27 04:17:23;;;;;;;2.28;1.10;;;;;;;25.73;33.80;95354.09;4993061;28;20030;-28
2021/12/27 04:19:48;;;;;;;1.50;0.70;;;;;;;25.74;33.81;95354.94;4987673;28;20056;-28
2021/12/27 04:22:13;;;;;;;1.73;0.82;;;;;;;25.73;33.86;95348.84;4988004;28;20033;-29
2021/12/27 04:24:39;;;;;;;1.30;0.80;;;;;;;25.73;33.87;95358.50;4991128;28;20030;-27
2021/12/27 04:27:04;;;;;;;0.93;0.73;;;;;;;25.73;33.78;95358.50;4992061;28;20041;-26
2021/12/27 04:29:30;;;;;;;1.02;0.80;;;;;;;25.71;33.78;95353.38;4991068;28;20030;-29
2021/12/27 04:31:55;;;;;;;1.13;0.75;;;;;;;25.72;33.87;95357.66;4992494;28;20043;-31
2021/12/27 04:34:20;;;;;;;2.40;0.80;;;;;;;25.72;33.92;95351.56;4990881;28;20601;-28
2021/12/27 04:36:46;;;;;;;0.98;0.70;;;;;;;25.72;33.74;95362.91;4993582;28;20029;-28
2021/12/27 04:39:11;;;;;;;1.08;0.60;;;;;;;25.71;33.69;95361.25;4972181;28;20076;-28
2021/12/27 04:41:38;;;;;;;1.80;0.90;;;;;;;25.70;33.64;95354.31;4989056;28;20546;-27
2021/12/27 04:44:04;;;;;;;2.83;0.85;;;;;;;25.71;33.83;95358.63;4991060;28;20018;-26
2021/12/27 04:46:29;;;;;;;1.42;0.70;;;;;;;25.71;33.66;95361.25;4987686;28;20041;-30
2021/12/27 04:48:55;;;;;;;1.83;1.00;;;;;;;25.69;33.84;95350.88;4984558;28;20029;-27
2021/12/27 04:51:21;;;;;;;1.48;0.80;;;;;;;25.72;33.83;95354.19;4971265;28;20026;-29
2021/12/27 04:53:48;;;;;;;3.05;0.82;;;;;;;25.69;33.86;95348.25;4987649;28;20058;-28
2021/12/27 04:56:13;;;;;;;1.00;0.70;;;;;;;25.69;33.74;95345.63;4989783;28;20258;-24
2021/12/27 04:58:39;;;;;;;1.20;0.65;;;;;;;25.70;33.75;95342.03;4986540;28;20127;-30
2021/12/27 05:01:04;;;;;;;1.60;0.85;;;;;;;25.68;33.84;95345.72;4989713;28;20570;-26
2021/12/27 05:03:29;;;;;;;0.82;0.57;;;;;;;25.69;33.81;95339.53;4988104;28;20041;-26
2021/12/27 05:05:55;;;;;;;1.77;0.70;;;;;;;25.68;33.71;95340.47;4988951;28;20033;-28
2021/12/27 05:08:20;;;;;;;1.25;0.68;;;;;;;25.68;33.82;95335.25;4973706;28;20507;-30
2021/12/27 05:10:46;;;;;;;1.52;0.82;;;;;;;25.68;33.89;95332.63;4992357;28;20026;-27
2021/12/27 05:13:11;;;;;;;0.82;0.50;;;;;;;25.69;33.86;95336.91;4990126;28;20646;-25
2021/12/27 05:15:37;;;;;;;0.95;0.75;;;;;;;25.68;33.75;95336.09;4990156;28;20026;-30
2021/12/27 05:18:02;;;;;;;1.88;0.90;;;;;;;25.67;33.71;95331.75;4989104;28;20048;-31
2021/12/27 05:20:27;;;;;;;1.15;0.60;;;;;;;25.69;33.79;95336.91;4991011;28;20034;-28
2021/12/27 05:22:53;;;;;;;1.38;0.90;;;;;;;25.67;33.62;95325.69;4989596;28;20027;-27
2021/12/27 05:25:18;;;;;;;1.05;0.70;;;;;;;25.66;33.61;95327.47;4985648;28;20049;-28
2021/12/27 05:27:44;;;;;;;2.17;0.90;;;;;;;25.65;33.78;95325.81;4988477;28;20030;-27
2021/12/27 05:30:10;;;;;;;1.52;0.70;;;;;;;25.65;33.67;95320.56;4984667;28;21362;-27
2021/12/27 05:32:35;;;;;;;1.27;0.50;;;;;;;25.65;33.69;95325.81;4989750;28;20120;-27
2021/12/27 05:35:02;;;;;;;0.88;0.68;;;;;;;25.66;33.71;95327.47;4988463;28;20562;-26
2021/12/27 05:37:27;;;;;;;1.05;0.68;;;;;;;25.66;33.56;95324.84;4988157;28;20088;-32
2021/12/27 05:39:53;;;;;;;0.73;0.60;;;;;;;25.67;33.72;95317.84;4989914;28;20034;-28
2021/12/27 05:42:18;;;;;;;2.33;0.60;;;;;;;25.66;33.79;95319.59;4966205;28;20038;-28
2021/12/27 05:44:43;;;;;;;3.03;0.88;;;;;;;25.65;33.74;95320.56;4988694;28;20034;-27
2021/12/27 05:47:09;;;;;;;0.82;0.57;;;;;;;25.65;33.66;95314.47;4980613;28;20037;-30
2021/12/27 05:49:34;;;;;;;1.50;0.80;;;;;;;25.65;33.70;95314.47;4988775;28;20026;-29
2021/12/27 05:52:00;;;;;;;1.15;0.80;;;;;;;25.65;33.80;95322.34;4984666;28;20040;-26
2021/12/27 05:54:25;;;;;;;1.17;0.73;;;;;;;25.64;33.70;95316.28;4988449;28;20030;-24
2021/12/27 05:56:50;;;;;;;1.13;0.50;;;;;;;25.64;33.64;95313.66;4988796;28;20046;-29
2021/12/27 05:59:19;;;;;;;0.85;0.65;;;;;;;25.64;33.62;95312.81;4985532;28;20095;-25
2021/12/27 06:01:44;;;;;;;1.30;0.70;;;;;;;25.64;33.79;95304.94;4986174;28;20570;-29
2021/12/27 06:04:10;;;;;;;1.45;0.50;;;;;;;25.63;33.51;95301.47;4970449;28;20038;-26
2021/12/27 06:06:36;;;;;;;0.73;0.55;;;;;;;25.62;33.44;95299.81;4986790;28;20504;-29
2021/12/27 06:09:01;;;;;;;0.40;0.40;;;;;;;25.63;33.62;95300.66;4971113;28;20169;-27
2021/12/27 06:11:27;;;;;;;1.08;0.40;;;;;;;25.62;33.74;95293.75;4989003;28;20060;-28
2021/12/27 06:13:52;;;;;;;0.73;0.52;;;;;;;25.62;33.63;95296.38;4986208;28;20034;-29
2021/12/27 06:16:18;;;;;;;0.95;0.63;;;;;;;25.61;33.77;95289.41;4988092;28;20604;-27
2021/12/27 06:18:43;;;;;;;0.73;0.50;;;;;;;25.61;33.68;95297.28;4984782;28;20465;-29
2021/12/27 06:21:08;;;;;;;1.33;0.60;;;;;;;25.61;33.74;95292.03;4971351;28;20023;-27
2021/12/27 06:23:34;;;;;;;1.17;0.60;;;;;;;25.61;33.68;95292.03;4987171;28;20045;-28
2021/12/27 06:25:59;;;;;;;0.60;0.50;;;;;;;25.61;33.75;95292.03;4990053;28;20037;-28
2021/12/27 06:28:25;;;;;;;0.90;0.50;;;;;;;25.59;33.67;95289.53;4985173;28;20033;-29
2021/12/27 06:30:50;;;;;;;0.95;0.60;;;;;;;25.60;33.66;95293.00;4985489;28;20046;-30
2021/12/27 06:33:15;;;;;;;6.07;1.02;;;;;;;25.59;33.80;95294.78;4985116;28;20097;-28
2021/12/27 06:35:42;;;;;;;4.10;1.20;;;;;;;25.59;33.89;95289.53;4986583;28;20030;-26
2021/12/27 06:38:07;;;;;;;1.90;0.80;;;;;;;25.59;33.79;95293.97;4984621;28;20042;-28
2021/12/27 06:40:33;;;;;;;3.65;0.60;;;;;;;25.58;33.89;95298.38;4990527;28;20424;-28
2021/12/27 06:42:58;;;;;;;0.57;0.55;;;;;;;25.58;33.99;95293.13;4987923;28;20038;-26
2021/12/27 06:45:24;;;;;;;2.92;0.70;;;;;;;25.56;33.69;95293.22;4985160;28;20056;-30
2021/12/27 06:47:49;;;;;;;0.90;0.70;;;;;;;25.56;33.82;95290.59;4985832;28;20044;-29
2021/12/27 06:50:15;;;;;;;1.08;0.68;;;;;;;25.56;33.76;95282.72;4959685;28;20137;-29
2021/12/27 06:52:40;;;;;;;0.93;0.57;;;;;;;25.57;33.78;95294.06;4981173;28;20037;-27
2021/12/27 06:55:07;;;;;;;1.13;0.60;;;;;;;25.57;33.63;95297.53;4968026;28;20037;-27
2021/12/27 06:57:32;;;;;;;1.65;0.70;;;;;;;25.56;33.60;95284.53;4987730;28;20061;-30
2021/12/27 06:59:58;;;;;;;0.98;0.65;;;;;;;25.55;33.64;95294.16;4966062;28;20042;-26
2021/12/27 07:02:24;;;;;;;1.05;0.60;;;;;;;25.55;33.71;95294.16;4987921;28;20044;-29
2021/12/27 07:04:49;;;;;;;0.85;0.63;;;;;;;25.54;33.78;95292.50;4992307;28;20502;-26
2021/12/27 07:07:15;;;;;;;0.75;0.65;;;;;;;25.55;33.65;95293.34;4990911;28;20045;-26
2021/12/27 07:09:40;;;;;;;0.70;0.70;;;;;;;25.54;33.51;95294.25;4957096;28;20747;-27
2021/12/27 07:12:06;;;;;;;0.70;0.60;;;;;;;25.54;33.59;95296.88;4974734;28;20036;-26
2021/12/27 07:14:32;;;;;;;0.85;0.60;;;;;;;25.54;33.76;95292.50;4970230;28;20022;-26
2021/12/27 07:16:57;;;;;;;0.63;0.43;;;;;;;25.53;33.54;95293.44;4991437;28;20045;-28
2021/12/27 07:19:23;;;;;;;1.02;0.43;;;;;;;25.55;33.74;95298.59;4985678;28;20408;-27
2021/12/27 07:21:48;;;;;;;1.10;0.60;;;;;;;25.54;33.52;95297.75;4984822;28;20555;-28
2021/12/27 07:24:13;;;;;;;1.75;0.40;;;;;;;25.51;33.43;95282.22;4986781;28;20044;-27
2021/12/27 07:26:39;;;;;;;2.58;0.60;;;;;;;25.53;33.50;95280.34;4972395;28;20034;-28
2021/12/27 07:29:04;;;;;;;1.30;0.73;;;;;;;25.54;33.44;95283.78;4971006;28;20069;-25
2021/12/27 07:31:30;;;;;;;1.23;0.60;;;;;;;25.53;33.43;95276.88;4969712;28;20555;-29
2021/12/27 07:33:55;;;;;;;2.97;0.82;;;;;;;25.53;33.60;95276.88;4988736;28;20034;-27
2021/12/27 07:36:20;;;;;;;6.70;2.10;;;;;;;25.52;33.36;95273.41;4988057;28;20080;-27
2021/12/27 07:38:46;;;;;;;6.63;1.65;;;;;;;25.53;33.46;95280.34;4979983;28;20049;-29
2021/12/27 07:41:11;;;;;;;2.22;1.38;;;;;;;25.52;33.31;95283.88;4982629;28;20030;-24
2021/12/27 07:43:37;;;;;;;3.35;1.77;;;;;;;25.50;33.52;95275.31;4983900;28;20041;-28
2021/12/27 07:46:02;;;;;;;14.20;2.40;;;;;;;25.51;33.39;95284.84;4984541;28;20038;-25
2021/12/27 07:48:28;;;;;;;5.78;1.92;;;;;;;25.51;33.37;95282.22;4983141;28;20385;-27
2021/12/27 07:50:53;;;;;;;11.30;3.17;;;;;;;25.50;33.11;95283.19;4954270;28;20030;-28
2021/12/27 07:53:19;;;;;;;15.73;3.40;;;;;;;25.50;32.77;95283.19;4962795;28;20046;-27
2021/12/27 07:55:44;;;;;;;12.20;3.70;;;;;;;25.49;32.53;95278.06;4982967;28;20026;-25
2021/12/27 07:58:09;;;;;;;9.80;2.75;;;;;;;25.48;32.33;95268.53;4984436;28;20026;-28
2021/12/27 08:00:35;;;;;;;6.07;2.60;;;;;;;25.47;32.17;95275.53;4982224;28;20077;-26
2021/12/27 08:03:00;;;;;;;8.32;3.60;;;;;;;25.46;32.00;95281.75;4964244;28;20037;-29
2021/12/27 08:05:26;;;;;;;8.43;3.13;;;;;;;25.45;31.79;95285.31;4984843;28;20030;-25
2021/12/27 08:07:51;;;;;;;15.73;4.10;;;;;;;25.43;31.82;95295.06;4968583;28;20123;-26
2021/12/27 08:10:17;;;;;;;9.18;3.00;;;;;;;25.41;31.70;95286.50;4967150;28;20041;-28
2021/12/27 08:12:42;;;;;;;11.35;3.05;;;;;;;25.42;31.64;95282.94;4965934;28;20034;-25
2021/12/27 08:15:08;;;;;;;10.35;3.50;;;;;;;25.41;31.51;95281.25;4967044;28;20041;-28
2021/12/27 08:17:34;;;;;;;13.60;3.92;;;;;;;25.40;31.59;95290.09;4966076;28;20044;-29
2021/12/27 08:19:59;;;;;;;9.52;4.45;;;;;;;25.39;31.31;95291.00;4979761;28;20022;-27
2021/12/27 08:22:25;;;;;;;10.20;3.53;;;;;;;25.38;31.76;95287.56;4978433;28;20579;-28
2021/12/27 08:24:51;;;;;;;10.13;3.40;;;;;;;25.39;31.92;95289.25;4979736;28;20100;-29
2021/12/27 08:27:17;;;;;;;10.60;3.85;;;;;;;25.40;32.00;95290.09;4979125;28;20182;-26
2021/12/27 08:29:42;;;;;;;9.80;4.30;;;;;;;25.41;32.26;95289.13;4969417;28;20037;-27
2021/12/27 08:32:08;;;;;;;9.57;4.03;;;;;;;25.43;32.33;95289.84;4989011;28;20030;-28
2021/12/27 08:34:33;;;;;;;9.70;4.20;;;;;;;25.43;32.50;95284.59;4983923;28;20029;-28
2021/12/27 08:36:59;;;;;;;13.88;3.80;;;;;;;25.43;32.42;95285.44;4965301;28;20038;-32
2021/12/27 08:39:24;;;;;;;7.88;3.40;;;;;;;25.44;32.59;95281.84;4967513;28;20029;-28
2021/12/27 08:41:50;;;;;;;9.65;3.72;;;;;;;25.45;32.62;95282.69;4953894;28;20041;-27
2021/12/27 08:44:16;;;;;;;13.95;3.10;;;;;;;25.45;32.58;95280.06;4970477;28;20088;-30
2021/12/27 08:46:41;;;;;;;8.20;2.90;;;;;;;25.47;32.63;95283.41;4965238;28;20041;-28
2021/12/27 08:49:06;;;;;;;6.50;3.03;;;;;;;25.49;32.68;95286.75;4982135;28;20033;-28
2021/12/27 08:51:32;;;;;;;9.57;3.20;;;;;;;25.49;32.66;95281.53;4981273;28;20416;-27
2021/12/27 08:53:58;;;;;;;7.25;3.05;;;;;;;25.52;32.59;95275.19;4982185;28;20036;-28
2021/12/27 08:56:23;;;;;;;7.88;2.80;;;;;;;25.52;32.80;95267.34;4967728;28;20026;-26
2021/12/27 08:58:48;;;;;;;7.43;2.55;;;;;;;25.54;32.91;95270.66;4982354;28;20034;-26
2021/12/27 09:01:14;;;;;;;11.88;3.05;;;;;;;25.54;32.80;95266.25;4982355;28;20033;-30
2021/12/27 09:03:39;;;;;;;7.43;2.85;;;;;;;25.56;32.90;95276.69;4971163;28;21632;-28
2021/12/27 09:06:05;;;;;;;7.63;2.67;;;;;;;25.56;32.90;95274.88;4966155;28;20061;-28
2021/12/27 09:08:30;;;;;;;6.57;2.67;;;;;;;25.59;32.95;95288.72;4989221;28;21008;-27
2021/12/27 09:10:58;;;;;;;4.57;2.63;;;;;;;25.62;32.98;95288.50;4968607;28;20468;-31
2021/12/27 09:13:32;;;;;;;5.43;3.55;;;;;;;25.61;31.56;95281.56;4983999;28;20030;-28
2021/12/27 09:16:02;;;;;;;13.32;5.55;;;;;;;25.52;29.29;95289.13;4986157;28;20027;-28
2021/12/27 09:18:28;;;;;;;8.25;5.90;;;;;;;25.35;27.91;95272.06;4968013;28;20819;-28
2021/12/27 09:20:54;;;;;;;10.18;5.45;;;;;;;25.19;27.73;95277.63;4936934;28;20053;-29
2021/12/27 09:23:19;;;;;;;14.50;5.15;;;;;;;25.04;27.90;95269.97;4965434;28;20042;-29
2021/12/27 09:25:47;;;;;;;7.28;4.00;;;;;;;24.93;28.75;95277.78;4979145;28;20088;-28
2021/12/27 09:28:13;;;;;;;12.30;4.45;;;;;;;24.86;29.38;95277.38;4983537;28;20037;-25
2021/12/27 09:30:38;;;;;;;7.90;3.90;;;;;;;24.83;29.83;95271.50;4965216;28;20044;-27
2021/12/27 09:33:04;;;;;;;8.10;3.55;;;;;;;24.81;30.08;95255.91;4982315;28;20109;-28
2021/12/27 09:35:29;;;;;;;7.95;3.60;;;;;;;24.80;30.37;95260.28;4982084;28;20080;-27
2021/12/27 09:37:55;;;;;;;12.48;3.10;;;;;;;24.82;30.38;95267.22;4981148;28;20036;-28
2021/12/27 09:40:20;;;;;;;5.97;3.00;;;;;;;24.82;30.56;95269.84;4981787;28;20061;-27
2021/12/27 09:42:46;;;;;;;6.75;3.10;;;;;;;24.84;30.67;95265.34;4983233;28;20561;-28
2021/12/27 09:45:11;;;;;;;5.05;2.47;;;;;;;24.85;30.79;95260.00;4949277;28;20669;-27
2021/12/27 09:47:37;;;;;;;8.90;3.00;;;;;;;24.87;30.89;95258.09;4963378;28;20033;-29
2021/12/27 09:50:05;;;;;;;3.90;2.63;;;;;;;24.89;30.93;95263.22;4966723;28;20040;-28
2021/12/27 09:52:30;;;;;;;9.65;2.70;;;;;;;24.92;31.22;95260.38;4957231;28;20469;-29
2021/12/27 09:54:56;;;;;;;7.35;2.67;;;;;;;24.95;31.37;95254.94;4964102;28;20033;-26
2021/12/27 09:57:22;;;;;;;8.95;2.90;;;;;;;24.97;31.34;95237.28;4980174;28;20105;-27
2021/12/27 09:59:47;;;;;;;6.72;2.92;;;;;;;25.01;31.19;95248.38;4966050;28;20034;-27
2021/12/27 10:02:13;;;;;;;21.90;4.82;;;;;;;25.04;31.40;95242.91;4983572;28;20034;-27
2021/12/27 10:04:38;;;;;;;32.47;5.57;;;;;;;25.07;31.43;95231.34;4984997;28;20650;-25
2021/12/27 10:07:04;;;;;;;20.65;4.85;;;;;;;25.10;31.58;95237.22;4985186;28;20030;-31
2021/12/27 10:09:32;;;;;;;21.55;4.78;;;;;;;25.14;31.48;95237.81;4968614;28;20401;-28
2021/12/27 10:11:57;;;;;;;12.85;4.43;;;;;;;25.17;31.68;95232.34;4986665;28;20455;-27
2021/12/27 10:14:24;;;;;;;21.05;5.20;;;;;;;25.19;31.83;95235.69;4987805;28;20036;-29
2021/12/27 10:16:52;;;;;;;23.05;5.20;;;;;;;25.22;31.67;95235.47;4986123;28;20531;-26
2021/12/27 10:19:19;;;;;;;20.23;4.35;;;;;;;25.23;31.73;95237.13;4979104;28;20083;-27
2021/12/27 10:21:45;;;;;;;16.45;3.90;;;;;;;25.26;31.90;95236.91;4978480;28;20111;-23
2021/12/27 10:24:18;;;;;;;15.85;3.60;;;;;;;25.28;31.98;95228.94;4986533;28;20042;-25
2021/12/27 10:26:44;;;;;;;16.70;4.43;;;;;;;25.30;31.93;95233.09;4988182;28;20030;-28
2021/12/27 10:29:18;;;;;;;20.30;3.97;;;;;;;25.31;32.17;95226.91;4957702;28;20040;-27
2021/12/27 10:32:11;;;;;;;17.20;3.92;;;;;;;25.35;32.24;95224.88;4986539;28;20381;-29
2021/12/27 10:34:45;;;;;;;15.30;3.83;;;;;;;25.37;32.04;95227.38;4988557;28;20092;-27
2021/12/27 10:37:23;;;;;;;8.65;3.53;;;;;;;25.38;32.27;95223.78;4989908;28;20068;-27
2021/12/27 10:40:03;;;;;;;12.00;3.58;;;;;;;25.40;32.30;95222.72;4991768;28;20025;-27
2021/12/27 10:42:38;;;;;;;8.27;3.10;;;;;;;25.41;32.39;95218.31;4992441;28;20693;-28
2021/12/27 10:45:24;;;;;;;8.05;3.40;;;;;;;25.41;32.41;95211.31;4974752;28;20026;-27
2021/12/27 10:47:51;;;;;;;7.72;3.25;;;;;;;25.44;32.39;95205.00;4976025;28;20588;-27
2021/12/27 10:50:17;;;;;;;9.80;3.15;;;;;;;25.45;32.34;95194.34;4974992;28;20026;-27
2021/12/27 10:53:15;;;;;;;8.88;3.10;;;;;;;25.46;32.49;95195.19;4991184;28;20033;-29
2021/12/27 10:55:43;;;;;;;6.75;2.88;;;;;;;25.47;32.47;95196.84;4988272;28;20509;-28
2021/12/27 10:58:27;;;;;;;7.75;2.92;;;;;;;25.49;32.66;95199.38;4991558;28;20041;-28
2021/12/27 11:01:00;;;;;;;9.77;3.15;;;;;;;25.50;32.67;95206.28;4992269;28;20030;-28
2021/12/27 11:03:30;;;;;;;7.25;2.58;;;;;;;25.51;32.72;95203.53;4975748;28;20034;-28
2021/12/27 11:05:55;;;;;;;5.45;2.67;;;;;;;25.51;32.76;95200.91;4973792;28;20444;-28
2021/12/27 11:08:21;;;;;;;9.75;2.95;;;;;;;25.53;32.82;95196.41;4974889;28;20057;-28
2021/12/27 11:10:46;;;;;;;11.25;3.20;;;;;;;25.55;32.86;95204.16;4975083;28;20026;-29
2021/12/27 11:13:12;;;;;;;6.88;2.80;;;;;;;25.55;32.91;95191.88;4972643;28;20098;-26
2021/12/27 11:15:37;;;;;;;9.02;2.70;;;;;;;25.56;32.83;95196.19;4973795;28;20054;-31
2021/12/27 11:18:07;;;;;;;5.53;2.58;;;;;;;25.57;32.74;95192.63;4971169;28;20030;-29
2021/12/27 11:20:34;;;;;;;8.75;2.70;;;;;;;25.60;32.79;95195.94;4985785;28;20041;-29
2021/12/27 11:22:59;;;;;;;10.00;2.58;;;;;;;25.55;32.96;95177.94;4967132;28;20495;-30
2021/12/27 11:25:37;;;;;;;5.85;2.35;;;;;;;25.62;32.97;95183.56;4953131;28;20125;-27
2021/12/27 11:28:06;;;;;;;4.43;2.03;;;;;;;25.64;33.04;95176.41;4970282;28;20586;-25
2021/12/27 11:30:33;;;;;;;6.22;2.05;;;;;;;25.64;33.06;95182.50;4987084;28;20034;-27
2021/12/27 11:32:59;;;;;;;4.45;2.30;;;;;;;25.66;33.00;95177.13;4968277;28;20061;-29
2021/12/27 11:35:24;;;;;;;5.68;2.20;;;;;;;25.66;33.10;95180.56;4969480;28;20030;-27
2021/12/27 11:37:51;;;;;;;6.75;2.28;;;;;;;25.68;33.07;95177.81;4950465;28;20053;-27
2021/12/27 11:40:17;;;;;;;5.72;2.20;;;;;;;25.70;33.12;95175.91;4983183;28;20025;-30
2021/12/27 11:42:52;;;;;;;5.75;1.90;;;;;;;25.70;33.13;95165.41;4963250;28;20673;-27
2021/12/27 11:45:55;;;;;;;4.18;2.10;;;;;;;25.72;33.08;95153.03;4980106;28;20037;-28
2021/12/27 11:48:25;;;;;;;3.17;1.90;;;;;;;25.74;33.10;95145.84;4952240;28;20046;-29